Time;durP1;ratioP1;P1;durP2;ratioP2;P2;SDS_P1;SDS_P2;PMS_P1;PMS_P2;Temp;Humidity;BMP_temperature;BMP_pressure;BME280_temperature;BME280_humidity;BME280_pressure;Samples;Min_cycle;Max_cycle;Signal;HPM_P1;HPM_P2
2023/02/15 00:01:41;;;;;;;55.17;31.30;;;4.50;76.30;;;;;;5061325;28;20477;-74
2023/02/15 00:04:08;;;;;;;52.95;29.23;;;4.60;75.50;;;;;;5053319;28;20405;-74
2023/02/15 00:06:34;;;;;;;53.20;30.70;;;4.60;74.70;;;;;;5053506;28;20873;-73
2023/02/15 00:08:59;;;;;;;54.63;30.10;;;4.50;74.30;;;;;;5053672;28;20431;-74
2023/02/15 00:11:42;;;;;;;54.70;29.60;;;4.50;75.80;;;;;;5053457;28;20378;-75
2023/02/15 00:14:09;;;;;;;58.40;32.30;;;4.40;76.00;;;;;;5053614;28;20458;-75
2023/02/15 00:19:09;;;;;;;55.97;30.63;;;4.40;76.40;;;;;;5071559;28;20504;-74
2023/02/15 00:21:36;;;;;;;55.53;30.40;;;4.30;76.80;;;;;;5045195;28;20897;-75
2023/02/15 00:24:03;;;;;;;53.97;30.57;;;4.30;76.90;;;;;;5059927;28;20421;-73
2023/02/15 00:26:29;;;;;;;63.17;32.25;;;4.30;77.50;;;;;;5061384;28;20454;-73
2023/02/15 00:28:55;;;;;;;58.45;31.05;;;4.30;77.40;;;;;;5062900;28;20393;-74
2023/02/15 00:31:21;;;;;;;60.00;31.42;;;4.30;77.10;;;;;;5044634;28;20377;-74
2023/02/15 00:33:47;;;;;;;57.93;31.47;;;4.20;76.90;;;;;;5061271;28;20482;-74
2023/02/15 00:36:14;;;;;;;56.50;31.30;;;4.20;77.90;;;;;;5055125;28;20867;-75
2023/02/15 00:38:39;;;;;;;55.97;31.73;;;4.20;78.90;;;;;;5053539;28;20395;-75
2023/02/15 00:41:07;;;;;;;57.05;31.02;;;4.20;78.70;;;;;;5035695;28;20757;-74
2023/02/15 00:43:34;;;;;;;60.97;31.92;;;4.20;78.40;;;;;;5035285;28;20413;-73
2023/02/15 00:46:00;;;;;;;62.00;30.80;;;4.20;78.90;;;;;;5035745;28;20811;-74
2023/02/15 00:48:25;;;;;;;62.25;31.95;;;4.10;79.10;;;;;;5052505;28;20385;-73
2023/02/15 00:50:53;;;;;;;60.75;32.47;;;4.00;78.90;;;;;;5055764;28;20385;-73
2023/02/15 00:53:20;;;;;;;59.67;32.67;;;4.00;80.30;;;;;;5035080;28;20747;-74
2023/02/15 00:55:45;;;;;;;59.58;31.80;;;4.10;78.50;;;;;;5056854;28;20486;-75
2023/02/15 00:58:12;;;;;;;58.13;32.10;;;4.10;78.90;;;;;;5059890;28;20393;-74
2023/02/15 01:00:39;;;;;;;59.03;32.55;;;4.00;79.70;;;;;;5060880;28;20800;-74
2023/02/15 01:03:06;;;;;;;57.65;32.85;;;4.00;79.90;;;;;;5064554;28;20397;-74
2023/02/15 01:05:32;;;;;;;57.70;31.92;;;4.00;80.20;;;;;;5071669;28;20593;-74
2023/02/15 01:07:58;;;;;;;61.25;33.47;;;4.00;80.50;;;;;;5069726;28;20377;-74
2023/02/15 01:10:25;;;;;;;56.72;31.92;;;3.90;80.90;;;;;;5061261;28;20385;-75
2023/02/15 01:12:52;;;;;;;60.80;32.00;;;3.90;80.10;;;;;;5055816;28;20428;-74
2023/02/15 01:15:17;;;;;;;54.50;30.77;;;3.90;80.20;;;;;;5052589;28;20398;-74
2023/02/15 01:17:50;;;;;;;60.75;31.10;;;3.80;80.50;;;;;;5051644;28;20770;-74
2023/02/15 01:20:17;;;;;;;59.63;32.10;;;3.80;80.80;;;;;;5051990;28;20746;-74
2023/02/15 01:22:42;;;;;;;62.47;32.88;;;3.80;81.10;;;;;;5052292;28;20406;-73
2023/02/15 01:25:08;;;;;;;60.53;32.87;;;3.80;81.10;;;;;;5052355;28;20397;-74
2023/02/15 01:27:33;;;;;;;63.17;33.33;;;3.70;82.20;;;;;;5051359;28;20392;-74
2023/02/15 01:29:59;;;;;;;60.92;32.50;;;3.70;81.90;;;;;;5051546;28;20461;-74
2023/02/15 01:32:24;;;;;;;61.67;32.90;;;3.80;81.80;;;;;;5051536;28;20386;-74
2023/02/15 01:34:50;;;;;;;58.05;32.55;;;3.80;81.90;;;;;;5051644;28;20396;-73
2023/02/15 01:37:15;;;;;;;62.42;32.92;;;3.70;82.80;;;;;;5051650;28;20396;-75
2023/02/15 01:39:41;;;;;;;66.80;33.33;;;3.70;82.50;;;;;;5052476;28;20470;-73
2023/02/15 01:42:11;;;;;;;63.43;32.80;;;3.70;82.50;;;;;;5054108;28;20858;-73
2023/02/15 01:44:58;;;;;;;62.45;33.78;;;3.60;82.90;;;;;;5051492;28;20385;-74
2023/02/15 01:47:53;;;;;;;63.77;32.90;;;3.60;84.00;;;;;;5051844;28;20408;-75
2023/02/15 01:50:29;;;;;;;61.85;33.45;;;3.60;84.50;;;;;;5051518;28;20390;-75
2023/02/15 01:53:17;;;;;;;59.17;31.83;;;3.60;83.50;;;;;;5050068;28;20765;-74
2023/02/15 01:55:53;;;;;;;61.70;32.38;;;3.60;83.90;;;;;;5051396;28;20416;-73
2023/02/15 01:58:19;;;;;;;62.35;33.78;;;3.60;84.20;;;;;;5052044;28;20850;-74
2023/02/15 02:00:45;;;;;;;59.67;33.20;;;3.50;84.50;;;;;;5051670;28;20420;-74
2023/02/15 02:03:11;;;;;;;67.38;34.50;;;3.50;84.50;;;;;;5051971;28;20402;-75
2023/02/15 02:05:38;;;;;;;61.00;33.13;;;3.50;84.40;;;;;;5051419;28;20382;-74
2023/02/15 02:08:04;;;;;;;61.08;34.05;;;3.50;84.50;;;;;;5051385;28;20439;-74
2023/02/15 02:10:30;;;;;;;67.77;34.87;;;3.50;85.00;;;;;;5051994;28;20393;-76
2023/02/15 02:13:00;;;;;;;61.63;33.33;;;3.50;85.70;;;;;;5050319;28;20389;-74
2023/02/15 02:15:47;;;;;;;66.95;34.83;;;3.40;84.80;;;;;;5052224;28;20389;-75
2023/02/15 02:18:16;;;;;;;66.72;34.55;;;3.50;84.90;;;;;;5052168;28;20480;-73
2023/02/15 02:21:30;;;;;;;63.17;35.03;;;3.40;84.40;;;;;;5051214;28;20401;-74
2023/02/15 02:24:37;;;;;;;66.57;34.80;;;3.40;85.50;;;;;;5042626;28;20786;-74
2023/02/15 02:27:27;;;;;;;58.80;32.80;;;3.40;85.30;;;;;;5051573;28;20479;-74
2023/02/15 02:29:56;;;;;;;63.90;35.15;;;3.40;86.50;;;;;;5055237;28;20443;-73
2023/02/15 02:32:28;;;;;;;60.23;33.60;;;3.30;86.80;;;;;;5054798;28;20775;-74
2023/02/15 02:35:18;;;;;;;61.47;33.25;;;3.40;84.30;;;;;;5036724;28;20385;-74
2023/02/15 02:37:56;;;;;;;55.95;31.90;;;3.30;86.10;;;;;;5054325;28;20389;-74
2023/02/15 02:40:45;;;;;;;69.55;34.65;;;3.30;86.40;;;;;;5054495;28;20395;-74
2023/02/15 02:43:40;;;;;;;66.47;34.60;;;3.30;86.40;;;;;;5043855;28;20408;-75
2023/02/15 02:46:15;;;;;;;64.70;34.30;;;3.30;87.40;;;;;;5054667;28;20425;-73
2023/02/15 02:48:40;;;;;;;63.65;34.05;;;3.30;84.40;;;;;;5054640;28;20405;-74
2023/02/15 02:51:06;;;;;;;69.72;35.08;;;3.20;85.40;;;;;;5054269;28;20909;-74
2023/02/15 02:53:33;;;;;;;60.58;34.22;;;3.10;87.20;;;;;;5053147;28;20495;-75
2023/02/15 02:56:06;;;;;;;64.72;34.30;;;3.10;88.00;;;;;;5036777;28;20419;-73
2023/02/15 02:58:36;;;;;;;63.60;34.10;;;3.20;87.80;;;;;;5055055;28;20458;-74
2023/02/15 03:01:11;;;;;;;66.80;35.65;;;3.10;87.80;;;;;;5054366;28;20584;-74
2023/02/15 03:03:43;;;;;;;62.85;34.03;;;3.10;88.40;;;;;;5054452;28;20496;-74
2023/02/15 03:06:27;;;;;;;65.72;34.92;;;3.10;88.10;;;;;;5053670;28;20943;-73
2023/02/15 03:09:23;;;;;;;65.43;34.50;;;3.10;88.20;;;;;;5054050;28;20389;-73
2023/02/15 03:11:49;;;;;;;66.10;35.72;;;3.10;89.90;;;;;;5047148;28;20476;-73
2023/02/15 03:14:18;;;;;;;64.63;35.00;;;3.00;89.70;;;;;;5055118;28;20762;-73
2023/02/15 03:16:47;;;;;;;65.18;34.35;;;3.00;90.90;;;;;;5054620;28;20406;-73
2023/02/15 03:19:21;;;;;;;64.03;34.75;;;3.00;92.20;;;;;;5056533;28;20424;-72
2023/02/15 03:21:57;;;;;;;66.72;35.10;;;3.00;91.70;;;;;;5042470;28;20402;-75
2023/02/15 03:24:28;;;;;;;67.93;35.17;;;3.00;92.30;;;;;;5060397;28;20488;-75
2023/02/15 03:26:55;;;;;;;68.13;34.88;;;3.10;92.50;;;;;;5057932;28;20405;-75
2023/02/15 03:29:27;;;;;;;66.95;35.35;;;3.00;89.80;;;;;;5063303;28;20488;-76
2023/02/15 03:32:01;;;;;;;69.15;35.47;;;2.90;91.10;;;;;;5056681;28;20389;-75
2023/02/15 03:34:27;;;;;;;64.32;35.80;;;3.00;90.70;;;;;;5054867;28;20373;-76
2023/02/15 03:36:58;;;;;;;70.95;34.33;;;2.90;90.20;;;;;;5036333;28;20472;-76
2023/02/15 03:39:45;;;;;;;62.88;35.80;;;2.90;90.90;;;;;;5055470;28;20464;-75
2023/02/15 03:42:17;;;;;;;68.25;35.78;;;2.90;91.60;;;;;;5056075;28;20413;-76
2023/02/15 03:45:09;;;;;;;66.28;34.95;;;3.00;89.80;;;;;;5059767;28;20388;-75
2023/02/15 03:47:39;;;;;;;67.10;34.58;;;2.90;89.50;;;;;;5062163;28;20388;-75
2023/02/15 03:53:04;;;;;;;62.63;34.27;;;2.90;89.70;;;;;;5061593;28;20466;-74
2023/02/15 03:55:30;;;;;;;67.13;35.40;;;2.90;89.70;;;;;;5066833;28;20393;-74
2023/02/15 04:03:51;;;;;;;66.45;35.38;;;2.80;90.70;;;;;;5071914;28;20412;-73
2023/02/15 04:06:16;;;;;;;64.18;36.00;;;2.80;92.10;;;;;;5069271;28;20385;-75
2023/02/15 04:11:26;;;;;;;66.43;33.90;;;2.80;90.20;;;;;;5063825;28;20384;-75
2023/02/15 04:13:56;;;;;;;67.60;34.53;;;2.90;91.00;;;;;;5054182;28;20381;-76
2023/02/15 04:16:23;;;;;;;66.13;34.15;;;2.80;90.50;;;;;;5064505;28;20390;-75
2023/02/15 04:27:03;;;;;;;70.53;35.20;;;2.70;94.20;;;;;;5055105;28;20461;-76
2023/02/15 04:29:28;;;;;;;65.63;35.43;;;2.60;92.30;;;;;;5055692;28;20385;-74
2023/02/15 04:31:58;;;;;;;71.07;36.22;;;2.60;94.10;;;;;;5056141;28;20385;-75
2023/02/15 04:34:24;;;;;;;65.25;33.85;;;2.60;94.60;;;;;;5054669;28;20390;-75
2023/02/15 04:36:50;;;;;;;67.53;35.57;;;2.60;93.40;;;;;;5064362;28;20393;-75
2023/02/15 04:39:17;;;;;;;70.63;35.03;;;2.60;93.60;;;;;;5054949;28;20390;-75
2023/02/15 04:41:43;;;;;;;73.28;33.92;;;2.60;92.90;;;;;;5053657;28;20378;-74
2023/02/15 04:44:09;;;;;;;67.60;35.28;;;2.60;93.80;;;;;;5054629;28;20416;-75
2023/02/15 04:46:34;;;;;;;67.82;35.50;;;2.50;93.60;;;;;;5035217;28;20382;-74
2023/02/15 04:49:00;;;;;;;68.43;35.80;;;2.60;94.80;;;;;;5053054;28;20850;-76
2023/02/15 04:51:25;;;;;;;63.95;34.78;;;2.60;93.90;;;;;;5053145;28;20378;-76
2023/02/15 04:53:54;;;;;;;70.67;36.10;;;2.60;94.40;;;;;;5052671;28;20481;-76
2023/02/15 04:56:20;;;;;;;69.00;36.08;;;2.60;93.50;;;;;;5055078;28;20385;-76
2023/02/15 04:58:46;;;;;;;73.88;35.13;;;2.50;92.80;;;;;;5052492;28;20711;-75
2023/02/15 05:01:12;;;;;;;67.70;34.25;;;2.50;93.90;;;;;;5052584;28;20393;-74
2023/02/15 05:03:37;;;;;;;67.83;34.23;;;2.50;92.90;;;;;;5035698;28;20488;-74
2023/02/15 05:06:04;;;;;;;72.28;35.22;;;2.50;93.30;;;;;;5053690;28;20887;-75
2023/02/15 05:08:30;;;;;;;70.13;34.90;;;2.40;94.20;;;;;;5052418;28;20382;-75
2023/02/15 05:10:56;;;;;;;69.30;35.28;;;2.40;94.50;;;;;;5052387;28;20890;-75
2023/02/15 05:13:21;;;;;;;63.33;33.25;;;2.50;94.10;;;;;;5051946;28;20532;-74
2023/02/15 05:15:52;;;;;;;68.00;34.33;;;2.50;92.80;;;;;;5052036;28;20443;-75
2023/02/15 05:18:19;;;;;;;64.38;34.90;;;2.40;93.20;;;;;;5051209;28;20473;-75
2023/02/15 05:20:45;;;;;;;66.07;33.72;;;2.30;94.80;;;;;;5051479;28;20392;-74
2023/02/15 05:23:11;;;;;;;70.80;36.43;;;2.40;94.90;;;;;;5051322;28;20786;-74
2023/02/15 05:28:22;;;;;;;75.60;36.50;;;2.40;92.80;;;;;;5051503;28;20393;-74
2023/02/15 05:31:15;;;;;;;70.10;36.13;;;2.40;93.90;;;;;;5051302;28;20997;-74
2023/02/15 05:33:41;;;;;;;71.00;34.75;;;2.30;93.80;;;;;;5051688;28;20900;-74
2023/02/15 05:36:07;;;;;;;68.70;35.03;;;2.30;95.30;;;;;;5051979;28;20484;-74
2023/02/15 05:38:33;;;;;;;68.28;35.17;;;2.20;95.40;;;;;;5034451;28;20474;-75
2023/02/15 05:40:59;;;;;;;70.18;36.08;;;2.20;96.10;;;;;;5052521;28;20424;-75
2023/02/15 05:43:25;;;;;;;69.97;35.83;;;2.20;97.20;;;;;;5052630;28;20455;-75
2023/02/15 05:45:53;;;;;;;71.75;35.25;;;2.20;97.50;;;;;;5051965;28;20404;-74
2023/02/15 05:48:20;;;;;;;69.70;35.85;;;2.20;97.50;;;;;;5053717;28;20821;-75
2023/02/15 05:50:46;;;;;;;71.27;35.80;;;2.20;98.20;;;;;;5056429;28;20751;-73
2023/02/15 05:53:12;;;;;;;70.68;35.25;;;2.20;97.50;;;;;;5056116;28;20473;-74
2023/02/15 05:55:41;;;;;;;69.93;35.90;;;2.20;97.60;;;;;;5052746;28;20390;-75
2023/02/15 05:58:07;;;;;;;86.50;38.05;;;2.20;98.90;;;;;;5052600;28;20715;-74
2023/02/15 06:00:33;;;;;;;69.85;35.38;;;2.20;99.10;;;;;;5052280;28;20397;-72
2023/02/15 06:02:59;;;;;;;68.63;34.80;;;2.20;97.60;;;;;;5033935;28;20455;-75
2023/02/15 06:05:24;;;;;;;67.27;35.00;;;2.20;97.10;;;;;;5053535;28;20389;-76
2023/02/15 06:07:50;;;;;;;68.68;34.40;;;2.10;97.70;;;;;;5035971;28;20385;-74
2023/02/15 06:10:16;;;;;;;69.55;35.35;;;2.10;98.80;;;;;;5059951;28;20876;-74
2023/02/15 06:12:41;;;;;;;69.20;34.67;;;2.10;98.50;;;;;;5057333;28;20389;-74
2023/02/15 06:15:07;;;;;;;67.40;34.50;;;2.10;97.30;;;;;;5059168;28;20468;-74
2023/02/15 06:17:33;;;;;;;67.10;34.30;;;2.10;97.10;;;;;;5069319;22;20728;-73
2023/02/15 06:19:58;;;;;;;62.33;35.25;;;2.00;97.90;;;;;;5011015;28;20456;-73
2023/02/15 06:22:24;;;;;;;70.37;34.40;;;2.00;97.60;;;;;;5010952;28;20435;-73
2023/02/15 06:24:49;;;;;;;69.33;36.20;;;2.00;97.90;;;;;;5011534;28;20426;-72
2023/02/15 06:27:15;;;;;;;77.80;36.50;;;2.00;98.00;;;;;;5011340;28;20384;-74
2023/02/15 06:29:41;;;;;;;68.20;36.13;;;2.00;98.70;;;;;;5011281;28;20479;-72
2023/02/15 06:32:06;;;;;;;71.63;36.15;;;1.90;98.80;;;;;;5011277;28;20392;-72
2023/02/15 06:34:32;;;;;;;69.88;34.97;;;2.00;98.50;;;;;;5011593;28;20396;-72
2023/02/15 06:36:58;;;;;;;70.17;36.60;;;1.90;98.90;;;;;;5011567;28;20411;-73
2023/02/15 06:39:23;;;;;;;75.35;36.47;;;1.90;99.30;;;;;;5014491;28;20389;-73
2023/02/15 06:41:49;;;;;;;76.15;36.90;;;1.90;99.90;;;;;;5015884;28;20412;-73
2023/02/15 06:44:15;;;;;;;73.50;35.27;;;1.90;99.90;;;;;;5016787;28;20396;-73
2023/02/15 06:46:40;;;;;;;70.67;34.43;;;1.90;99.70;;;;;;5016102;28;20400;-73
2023/02/15 06:49:06;;;;;;;65.43;34.70;;;1.90;99.80;;;;;;5015419;28;20392;-73
2023/02/15 06:51:33;;;;;;;69.63;36.27;;;2.00;99.50;;;;;;5015624;28;20396;-73
2023/02/15 06:53:59;;;;;;;316.33;153.90;;;2.10;98.70;;;;;;5016306;28;20583;-73
2023/02/15 06:56:24;;;;;;;147.63;69.30;;;2.10;99.60;;;;;;5016384;28;20399;-72
2023/02/15 06:58:50;;;;;;;150.05;71.53;;;2.50;99.90;;;;;;5022413;28;20443;-73
2023/02/15 07:01:16;;;;;;;164.27;81.87;;;2.50;99.90;;;;;;5026563;28;20841;-74
2023/02/15 07:03:41;;;;;;;111.00;52.13;;;2.50;99.90;;;;;;5021713;28;20412;-72
2023/02/15 07:06:08;;;;;;;81.82;42.08;;;2.60;98.80;;;;;;5012950;28;20989;-73
2023/02/15 07:08:35;;;;;;;70.43;35.17;;;2.60;94.90;;;;;;5011983;28;20385;-73
2023/02/15 07:13:47;;;;;;;93.75;45.53;;;2.70;95.80;;;;;;5015076;28;20443;-73
2023/02/15 07:16:13;;;;;;;71.43;36.90;;;2.80;93.90;;;;;;5014227;28;20397;-74
2023/02/15 07:18:39;;;;;;;73.13;36.03;;;2.80;91.00;;;;;;5014771;28;20483;-73
2023/02/15 07:21:07;;;;;;;83.60;42.50;;;2.80;89.50;;;;;;5012933;28;20944;-73
2023/02/15 07:23:34;;;;;;;79.00;40.50;;;2.80;88.70;;;;;;5014611;28;20587;-73
2023/02/15 07:26:01;;;;;;;108.22;54.90;;;2.90;86.50;;;;;;5012944;28;20435;-72
2023/02/15 07:28:27;;;;;;;65.67;32.00;;;3.00;88.40;;;;;;5021050;28;20885;-73
2023/02/15 07:30:53;;;;;;;56.65;30.80;;;3.00;83.50;;;;;;5019228;28;20431;-74
2023/02/15 07:33:26;;;;;;;60.20;30.97;;;2.90;82.30;;;;;;5014571;28;20404;-74
2023/02/15 07:35:58;;;;;;;61.13;30.65;;;2.90;81.80;;;;;;5013772;28;20396;-74
2023/02/15 07:38:29;;;;;;;61.42;30.33;;;2.90;82.00;;;;;;5012231;28;20389;-75
2023/02/15 07:40:59;;;;;;;60.30;31.00;;;3.00;80.80;;;;;;5013297;28;20385;-73
2023/02/15 07:43:25;;;;;;;57.90;30.80;;;2.90;80.90;;;;;;5011953;28;20913;-72
2023/02/15 07:45:50;;;;;;;57.13;29.95;;;3.00;80.70;;;;;;5013629;28;20393;-74
2023/02/15 07:48:16;;;;;;;58.10;30.63;;;3.00;79.50;;;;;;5014422;28;20441;-74
2023/02/15 07:50:41;;;;;;;56.30;31.07;;;3.00;80.00;;;;;;5013809;28;20384;-73
2023/02/15 07:53:07;;;;;;;59.70;31.60;;;3.00;80.00;;;;;;5012377;28;20424;-74
2023/02/15 07:55:32;;;;;;;58.17;29.80;;;3.10;79.30;;;;;;5015906;28;20389;-74
2023/02/15 07:57:58;;;;;;;56.00;30.23;;;3.20;79.70;;;;;;5016476;28;20464;-72
2023/02/15 08:00:26;;;;;;;58.28;31.17;;;3.30;76.80;;;;;;5014171;28;20400;-75
2023/02/15 08:05:43;;;;;;;55.90;29.33;;;3.30;76.60;;;;;;5013650;28;20388;-74
2023/02/15 08:08:29;;;;;;;53.65;29.60;;;3.40;75.30;;;;;;5013481;28;20753;-73
2023/02/15 08:11:26;;;;;;;49.60;27.83;;;3.40;75.10;;;;;;5013458;28;20941;-74
2023/02/15 08:13:55;;;;;;;50.53;28.98;;;3.50;73.10;;;;;;5010683;28;20467;-73
2023/02/15 08:16:30;;;;;;;62.67;28.95;;;3.70;72.50;;;;;;5013057;28;20388;-73
2023/02/15 08:18:57;;;;;;;48.65;27.77;;;3.80;68.60;;;;;;5011900;28;20896;-73
2023/02/15 08:21:26;;;;;;;57.03;28.50;;;3.80;67.60;;;;;;5012898;28;20530;-74
2023/02/15 08:23:52;;;;;;;50.92;27.80;;;3.80;67.10;;;;;;5011459;28;20423;-73
2023/02/15 08:26:17;;;;;;;52.83;27.17;;;3.90;66.20;;;;;;5013479;28;20389;-73
2023/02/15 08:28:44;;;;;;;51.80;28.05;;;4.10;64.00;;;;;;5012898;28;20381;-73
2023/02/15 08:31:11;;;;;;;45.75;26.63;;;4.10;63.10;;;;;;5012779;28;20479;-73
2023/02/15 08:33:38;;;;;;;48.97;27.05;;;4.30;61.10;;;;;;5013238;28;20385;-75
2023/02/15 08:36:09;;;;;;;47.47;26.27;;;4.50;59.70;;;;;;5013884;28;20829;-74
2023/02/15 08:38:35;;;;;;;49.17;26.08;;;4.50;58.90;;;;;;5019642;28;20388;-73
2023/02/15 08:41:18;;;;;;;45.97;26.25;;;4.60;57.70;;;;;;5026284;28;20384;-73
2023/02/15 08:43:46;;;;;;;40.67;23.90;;;4.70;56.70;;;;;;5025348;28;20411;-74
2023/02/15 08:46:13;;;;;;;43.70;24.23;;;4.80;54.70;;;;;;5026107;28;20393;-73
2023/02/15 08:48:39;;;;;;;47.58;25.35;;;5.00;55.00;;;;;;5025242;28;20775;-73
2023/02/15 08:51:11;;;;;;;42.03;24.37;;;5.10;53.10;;;;;;5016260;28;20425;-73
2023/02/15 08:53:38;;;;;;;44.60;25.07;;;5.10;52.30;;;;;;5013999;28;20393;-73
2023/02/15 08:56:04;;;;;;;42.78;23.77;;;5.20;51.60;;;;;;5013633;28;20431;-73
2023/02/15 08:58:33;;;;;;;43.03;24.05;;;5.40;52.10;;;;;;5019699;28;20739;-73
2023/02/15 09:00:58;;;;;;;44.65;23.65;;;5.50;50.00;;;;;;5019172;28;20466;-73
2023/02/15 09:03:24;;;;;;;42.03;24.08;;;5.70;47.50;;;;;;5016970;28;20405;-72
2023/02/15 09:05:50;;;;;;;40.20;23.60;;;5.70;46.70;;;;;;5010947;28;20401;-75
2023/02/15 09:08:15;;;;;;;39.97;23.33;;;5.70;46.70;;;;;;5012362;28;20416;-75
2023/02/15 09:10:41;;;;;;;39.07;22.53;;;5.70;45.80;;;;;;5010943;28;20404;-73
2023/02/15 09:13:07;;;;;;;38.30;22.60;;;5.80;45.30;;;;;;5010763;28;20404;-74
2023/02/15 09:15:32;;;;;;;39.43;21.93;;;5.90;45.20;;;;;;5011686;28;20401;-74
2023/02/15 09:18:05;;;;;;;37.28;22.40;;;6.00;43.90;;;;;;5012347;28;20396;-73
2023/02/15 09:20:31;;;;;;;40.30;22.90;;;6.00;43.30;;;;;;5012262;28;20391;-75
2023/02/15 09:22:57;;;;;;;42.45;22.77;;;6.10;43.00;;;;;;5013186;28;20397;-73
2023/02/15 09:25:22;;;;;;;39.53;22.83;;;6.20;43.10;;;;;;5012311;28;20392;-74
2023/02/15 09:27:48;;;;;;;39.03;21.38;;;6.30;42.40;;;;;;5012361;28;20377;-73
2023/02/15 09:30:14;;;;;;;36.55;20.77;;;6.40;41.00;;;;;;5012058;28;20393;-73
2023/02/15 09:32:40;;;;;;;36.10;21.60;;;6.50;40.10;;;;;;5011719;28;20384;-74
2023/02/15 09:35:05;;;;;;;34.90;20.67;;;6.60;40.70;;;;;;5011825;28;20401;-75
2023/02/15 09:37:31;;;;;;;35.25;21.05;;;6.60;40.90;;;;;;5012225;28;20381;-75
2023/02/15 09:39:57;;;;;;;38.33;22.20;;;6.70;39.00;;;;;;5010767;28;20381;-73
2023/02/15 09:42:45;;;;;;;40.53;22.00;;;6.80;38.40;;;;;;5011509;28;20393;-73
2023/02/15 09:45:39;;;;;;;39.00;21.50;;;6.80;37.30;;;;;;5012026;28;20420;-73
2023/02/15 09:48:35;;;;;;;38.25;21.02;;;7.00;37.10;;;;;;5006736;28;20398;-73
2023/02/15 09:51:20;;;;;;;34.83;21.48;;;7.00;36.90;;;;;;5011223;28;20412;-75
2023/02/15 09:54:11;;;;;;;37.53;22.00;;;7.00;36.90;;;;;;5012289;28;20463;-73
2023/02/15 09:56:37;;;;;;;38.40;21.80;;;7.10;38.20;;;;;;5011691;28;20478;-73
2023/02/15 09:59:45;;;;;;;36.55;21.85;;;7.20;37.20;;;;;;5018691;28;20420;-73
2023/02/15 10:02:35;;;;;;;37.08;22.10;;;7.30;36.80;;;;;;5003762;28;20383;-76
2023/02/15 10:05:33;;;;;;;38.63;21.20;;;7.40;35.70;;;;;;5015302;28;20963;-76
2023/02/15 10:08:34;;;;;;;38.50;20.90;;;7.50;35.40;;;;;;5000889;28;20898;-74
2023/02/15 10:11:41;;;;;;;42.60;20.40;;;7.70;34.80;;;;;;5012221;28;20399;-74
2023/02/15 10:14:43;;;;;;;34.85;20.33;;;7.80;33.70;;;;;;5012137;28;20384;-75
2023/02/15 10:17:19;;;;;;;35.75;20.27;;;7.90;33.40;;;;;;5012955;28;20385;-73
2023/02/15 10:20:19;;;;;;;33.85;19.85;;;7.90;33.50;;;;;;5011624;28;20401;-75
2023/02/15 10:23:23;;;;;;;37.35;20.80;;;8.00;33.20;;;;;;5011808;28;20837;-75
2023/02/15 10:26:15;;;;;;;33.30;19.73;;;8.20;32.70;;;;;;5011477;28;20860;-74
2023/02/15 10:28:46;;;;;;;32.90;19.20;;;8.30;32.00;;;;;;5010628;28;20786;-74
2023/02/15 10:31:44;;;;;;;36.35;20.77;;;8.50;30.70;;;;;;5010944;28;20380;-74
2023/02/15 10:34:35;;;;;;;29.55;19.23;;;8.60;30.20;;;;;;5011548;28;20504;-73
2023/02/15 10:37:23;;;;;;;32.03;19.08;;;8.80;29.20;;;;;;5009051;28;20404;-75
2023/02/15 10:40:07;;;;;;;31.35;18.42;;;8.80;28.80;;;;;;5010755;28;20384;-74
2023/02/15 10:42:54;;;;;;;34.58;19.90;;;8.90;28.70;;;;;;5010539;28;20385;-73
2023/02/15 10:45:20;;;;;;;37.90;19.38;;;9.00;28.40;;;;;;5011575;28;20389;-74
2023/02/15 10:48:12;;;;;;;32.80;18.70;;;9.10;27.60;;;;;;5014472;28;20385;-74
2023/02/15 10:50:44;;;;;;;36.97;18.97;;;9.10;27.40;;;;;;5014532;28;20388;-74
2023/02/15 10:53:34;;;;;;;32.65;19.35;;;9.20;27.00;;;;;;5014722;28;20396;-73
2023/02/15 10:56:08;;;;;;;31.30;17.90;;;9.30;27.00;;;;;;5014514;28;20392;-74
2023/02/15 10:59:01;;;;;;;36.20;19.30;;;9.30;26.80;;;;;;5015218;28;20384;-74
2023/02/15 11:01:53;;;;;;;33.33;19.50;;;9.30;26.60;;;;;;5014470;28;20415;-73
2023/02/15 11:04:46;;;;;;;33.17;18.25;;;9.40;26.60;;;;;;5014424;28;20396;-72
2023/02/15 11:07:21;;;;;;;30.55;18.48;;;9.50;26.00;;;;;;5014327;28;20381;-74
2023/02/15 11:09:55;;;;;;;34.58;19.63;;;9.50;26.10;;;;;;5015805;28;20384;-73
2023/02/15 11:12:27;;;;;;;32.10;19.80;;;9.60;25.60;;;;;;5014017;28;20388;-73
2023/02/15 11:15:10;;;;;;;36.20;19.67;;;9.60;25.60;;;;;;5014175;28;20397;-72
2023/02/15 11:17:43;;;;;;;32.58;18.98;;;9.70;25.00;;;;;;5014026;28;20389;-74
2023/02/15 11:20:15;;;;;;;33.85;20.00;;;9.70;26.20;;;;;;5014289;28;20397;-74
2023/02/15 11:22:41;;;;;;;33.67;18.67;;;9.70;25.90;;;;;;5013722;28;20388;-73
2023/02/15 11:25:30;;;;;;;32.53;18.83;;;9.80;26.90;;;;;;5014481;28;20823;-74
2023/02/15 11:27:56;;;;;;;34.80;18.38;;;9.90;25.50;;;;;;5010496;28;20404;-74
2023/02/15 11:30:28;;;;;;;34.63;18.90;;;10.00;23.90;;;;;;5013983;28;20389;-74
2023/02/15 11:32:58;;;;;;;30.67;18.30;;;10.00;24.10;;;;;;5013728;28;20881;-74
2023/02/15 11:35:36;;;;;;;30.30;19.00;;;10.00;24.10;;;;;;5012367;28;20420;-72
2023/02/15 11:38:14;;;;;;;32.00;18.20;;;10.10;23.90;;;;;;5013436;28;20774;-72
2023/02/15 11:40:53;;;;;;;30.50;17.70;;;10.20;24.20;;;;;;5013351;28;20724;-74
2023/02/15 11:43:37;;;;;;;34.55;18.80;;;10.20;23.60;;;;;;5013543;28;20654;-75
2023/02/15 11:46:03;;;;;;;33.45;17.70;;;10.20;23.60;;;;;;5013466;28;20546;-73
2023/02/15 11:48:31;;;;;;;32.03;18.67;;;10.20;23.40;;;;;;5013307;28;20395;-72
2023/02/15 11:50:57;;;;;;;27.75;17.15;;;10.30;23.80;;;;;;5013619;28;20770;-72
2023/02/15 11:53:25;;;;;;;28.63;17.15;;;10.40;24.20;;;;;;4997976;28;20498;-74
2023/02/15 11:55:51;;;;;;;31.88;18.35;;;10.60;23.90;;;;;;5000962;28;20490;-73
2023/02/15 11:58:22;;;;;;;32.40;17.70;;;10.70;22.50;;;;;;5015061;28;20960;-74
2023/02/15 12:00:52;;;;;;;32.08;18.58;;;10.70;22.50;;;;;;5014892;28;20404;-75
2023/02/15 12:03:24;;;;;;;31.37;18.00;;;10.80;22.00;;;;;;5023681;28;20471;-75
2023/02/15 12:05:58;;;;;;;30.65;17.83;;;10.80;22.80;;;;;;5025600;28;20396;-74
2023/02/15 12:08:24;;;;;;;31.33;17.77;;;10.90;23.40;;;;;;5005498;28;20424;-74
2023/02/15 12:11:15;;;;;;;31.05;17.83;;;10.90;21.80;;;;;;4999246;28;20391;-75
2023/02/15 12:14:11;;;;;;;30.90;18.30;;;10.90;22.00;;;;;;4992367;28;20425;-74
2023/02/15 12:16:53;;;;;;;29.98;17.85;;;11.10;22.10;;;;;;5004008;28;20467;-73
2023/02/15 12:19:31;;;;;;;30.08;17.90;;;11.20;21.30;;;;;;5010229;28;20409;-73
2023/02/15 12:21:59;;;;;;;31.95;17.70;;;11.20;21.00;;;;;;5001144;28;20866;-74
2023/02/15 12:24:27;;;;;;;29.55;17.58;;;11.30;20.80;;;;;;5010952;28;20416;-73
2023/02/15 12:27:18;;;;;;;28.52;17.27;;;11.40;20.50;;;;;;5010512;28;20393;-74
2023/02/15 12:29:53;;;;;;;29.80;17.50;;;11.40;20.60;;;;;;5013592;28;20412;-73
2023/02/15 12:32:25;;;;;;;29.80;17.65;;;11.50;21.60;;;;;;5013218;28;20466;-74
2023/02/15 12:34:53;;;;;;;28.23;17.40;;;11.60;20.70;;;;;;5010952;28;20881;-75
2023/02/15 12:37:31;;;;;;;35.03;17.58;;;11.60;20.70;;;;;;5011650;28;20385;-74
2023/02/15 12:40:02;;;;;;;27.33;17.67;;;11.70;20.10;;;;;;5010398;28;20408;-74
2023/02/15 12:42:42;;;;;;;27.13;17.15;;;11.80;20.20;;;;;;5010220;28;20447;-75
2023/02/15 12:45:31;;;;;;;31.42;16.75;;;11.90;20.10;;;;;;5010901;28;20384;-73
2023/02/15 12:48:12;;;;;;;32.13;17.30;;;12.00;21.00;;;;;;5010624;28;20436;-75
2023/02/15 12:50:48;;;;;;;30.93;16.30;;;12.10;21.00;;;;;;5010114;28;20466;-72
2023/02/15 12:53:24;;;;;;;31.73;16.58;;;12.20;20.50;;;;;;5010690;28;21015;-73
2023/02/15 12:55:58;;;;;;;27.45;17.10;;;12.30;19.90;;;;;;5004571;28;20394;-73
2023/02/15 12:58:26;;;;;;;31.13;17.20;;;12.40;20.40;;;;;;5009668;28;20404;-73
2023/02/15 13:01:21;;;;;;;27.75;16.85;;;12.40;20.20;;;;;;5009411;28;20391;-73
2023/02/15 13:03:53;;;;;;;29.67;18.13;;;12.40;19.70;;;;;;5006870;28;20422;-75
2023/02/15 13:06:20;;;;;;;28.02;16.10;;;12.40;19.90;;;;;;5010444;28;20877;-75
2023/02/15 13:08:49;;;;;;;39.00;17.50;;;12.50;19.10;;;;;;5017119;28;20727;-74
2023/02/15 13:11:33;;;;;;;28.30;16.40;;;12.60;18.70;;;;;;5022183;28;20393;-74
2023/02/15 13:14:02;;;;;;;29.42;16.35;;;12.70;18.40;;;;;;5024766;28;20734;-73
2023/02/15 13:16:32;;;;;;;29.40;16.27;;;12.70;18.10;;;;;;5012430;28;20393;-75
2023/02/15 13:19:02;;;;;;;35.63;16.63;;;12.70;18.20;;;;;;5010193;28;20580;-74
2023/02/15 13:21:33;;;;;;;27.45;16.30;;;12.90;18.00;;;;;;5004948;28;20414;-76
2023/02/15 13:24:15;;;;;;;31.55;16.65;;;12.90;17.70;;;;;;4990738;28;20776;-73
2023/02/15 13:26:44;;;;;;;35.08;17.83;;;13.00;17.50;;;;;;4989772;28;20406;-73
2023/02/15 13:29:27;;;;;;;33.63;17.73;;;13.00;17.60;;;;;;4991217;28;20391;-74
2023/02/15 13:31:55;;;;;;;32.10;18.27;;;13.10;17.50;;;;;;4990734;28;20449;-74